Time;durP1;ratioP1;P1;durP2;ratioP2;P2;SDS_P1;SDS_P2;PMS_P1;PMS_P2;Temp;Humidity;BMP_temperature;BMP_pressure;BME280_temperature;BME280_humidity;BME280_pressure;Samples;Min_cycle;Max_cycle;Signal;HPM_P1;HPM_P2
2023/09/06 00:00:37;;;;;;;7.23;6.50;;;;;;;9.77;100.00;96439.50;7408820;19;20476;-96
2023/09/06 00:03:18;;;;;;;12.00;6.57;;;;;;;9.09;100.00;96310.19;7437256;19;20409;-96
2023/09/06 00:05:54;;;;;;;10.13;6.67;;;;;;;8.78;100.00;96288.56;7438411;19;20377;-96
2023/09/06 00:08:34;;;;;;;15.33;7.00;;;;;;;9.90;100.00;96475.50;7434551;19;20364;-96
2023/09/06 02:02:40;;;;;;;9.33;6.70;;;;;;;7.78;100.00;96280.91;7407716;19;20444;-96
2023/09/06 02:11:12;;;;;;;11.77;8.63;;;;;;;8.17;100.00;96390.59;7431143;19;20424;-96
2023/09/06 02:13:40;;;;;;;13.53;8.30;;;;;;;7.07;100.00;96307.34;7429397;19;20397;-96
2023/09/06 02:16:07;;;;;;;8.73;7.30;;;;;;;6.82;100.00;96232.59;7429146;19;20388;-96
2023/09/06 03:20:45;;;;;;;10.53;5.60;;;;;;;8.07;100.00;96446.16;7433416;19;20436;-96
2023/09/06 03:23:24;;;;;;;8.17;6.20;;;;;;;7.43;100.00;96353.72;7435792;19;20368;-96
2023/09/06 03:25:58;;;;;;;9.00;5.43;;;;;;;6.63;100.00;96209.16;7419387;19;20448;-96
2023/09/06 03:28:31;;;;;;;9.20;6.03;;;;;;;6.72;100.00;96233.63;7436248;19;20364;-96
2023/09/06 03:31:18;;;;;;;7.17;5.17;;;;;;;7.77;100.00;96395.16;7442519;19;20428;-96
2023/09/06 03:33:46;;;;;;;13.33;5.87;;;;;;;8.88;100.00;96584.28;7439082;19;20388;-95
2023/09/06 03:36:18;;;;;;;7.73;4.83;;;;;;;7.60;100.00;96414.28;7436214;19;20398;-96
2023/09/06 04:03:50;;;;;;;7.53;6.03;;;;;;;7.43;100.00;96416.84;7368135;19;20444;-95
2023/09/06 04:45:52;;;;;;;7.23;5.70;;;;;;;5.74;100.00;96278.22;7439197;19;20375;-94
2023/09/06 04:48:40;;;;;;;12.00;5.90;;;;;;;5.99;100.00;96278.75;7436063;19;20906;-96
2023/09/06 04:51:14;;;;;;;11.67;5.70;;;;;;;5.88;100.00;96286.06;7433855;19;20364;-96
2023/09/06 04:53:49;;;;;;;11.00;6.30;;;;;;;6.72;100.00;96406.25;7433709;19;20407;-95
2023/09/06 04:56:25;;;;;;;12.07;5.90;;;;;;;5.72;100.00;96242.88;7432942;19;20372;-95
2023/09/06 05:19:27;;;;;;;27.87;8.87;;;;;;;5.83;100.00;96258.09;7433931;19;20429;-96
2023/09/06 05:22:17;;;;;;;20.43;7.43;;;;;;;6.05;100.00;96274.97;7431447;19;20452;-96
2023/09/06 05:25:06;;;;;;;23.10;7.03;;;;;;;6.88;100.00;96396.94;7434752;19;20381;-95
2023/09/06 05:31:01;;;;;;;20.27;7.13;;;;;;;6.28;100.00;96245.00;7433538;19;20411;-96
2023/09/06 05:33:44;;;;;;;14.53;7.40;;;;;;;6.44;100.00;96253.28;7433091;19;20396;-96
2023/09/06 05:36:48;;;;;;;11.03;7.10;;;;;;;9.06;100.00;96621.22;7429247;19;20397;-95
2023/09/06 05:39:37;;;;;;;15.93;6.87;;;;;;;9.29;100.00;96625.28;7428559;19;20376;-94
2023/09/06 05:42:16;;;;;;;13.20;7.13;;;;;;;7.20;100.00;96292.53;7425041;19;20451;-94
2023/09/06 05:45:14;;;;;;;10.93;6.63;;;;;;;7.34;100.00;96277.41;7429761;19;20396;-94
2023/09/06 05:47:56;;;;;;;13.70;7.30;;;;;;;9.72;100.00;96627.91;7429812;19;20371;-94
2023/09/06 05:50:38;;;;;;;14.53;7.70;;;;;;;8.98;100.00;96482.25;7430015;19;20401;-94
2023/09/06 06:08:08;;;;;;;19.90;7.53;;;;;;;9.29;100.00;96516.34;7407579;19;20444;-94
2023/09/06 06:10:46;;;;;;;17.43;7.87;;;;;;;8.97;100.00;96441.13;7428630;19;20405;-94
2023/09/06 06:13:29;;;;;;;12.57;6.80;;;;;;;9.55;100.00;96529.50;7432098;19;20416;-94
2023/09/06 06:16:01;;;;;;;10.33;6.30;;;;;;;9.45;100.00;96522.66;7431406;19;20404;-92
2023/09/06 06:19:05;;;;;;;14.70;7.77;;;;;;;10.07;100.00;96578.44;7431155;19;20389;-93
2023/09/06 06:21:57;;;;;;;17.80;6.50;;;;;;;9.25;100.00;96426.50;7427752;19;20396;-93
2023/09/06 06:24:48;;;;;;;6.77;6.17;;;;;;;10.11;100.00;96519.66;7432212;19;20419;-93
2023/09/06 06:27:37;;;;;;;12.97;6.40;;;;;;;10.47;100.00;96551.72;7431210;19;20381;-93
2023/09/06 06:30:14;;;;;;;14.47;8.10;;;;;;;10.00;100.00;96435.50;7428778;19;20408;-93
2023/09/06 06:33:05;;;;;;;10.00;7.20;;;;;;;10.33;100.00;96493.00;7429807;19;20425;-93
2023/09/06 06:35:59;;;;;;;9.87;7.30;;;;;;;11.60;100.00;96601.94;7431244;19;20385;-94
2023/09/06 06:38:46;;;;;;;13.47;8.80;;;;;;;12.18;100.00;96652.41;7430971;19;20385;-93
2023/09/06 06:41:27;;;;;;;10.00;7.40;;;;;;;11.74;100.00;96501.75;7430267;19;20405;-93
2023/09/06 06:44:28;;;;;;;9.67;6.17;;;;;;;11.72;100.00;96451.00;7429530;19;20436;-94
2023/09/06 06:47:16;;;;;;;9.80;7.70;;;;;;;12.49;100.00;96537.84;7431144;19;20385;-93
2023/09/06 06:50:03;;;;;;;8.07;7.30;;;;;;;12.86;100.00;96533.28;7429106;19;20385;-93
2023/09/06 06:53:04;;;;;;;7.53;6.83;;;;;;;13.41;100.00;96576.94;7429056;19;20425;-94
2023/09/06 06:55:57;;;;;;;7.13;6.23;;;;;;;13.42;100.00;96523.47;7428645;19;20388;-93
2023/09/06 06:58:42;;;;;;;9.23;6.30;;;;;;;13.72;100.00;96507.16;7431408;19;20382;-92
2023/09/06 07:01:41;;;;;;;;;;;;;;;;;;;;;
2023/09/06 07:04:27;;;;;;;7.43;6.07;;;;;;;14.53;100.00;96563.44;7429363;19;20416;-93
2023/09/06 07:07:21;;;;;;;7.60;6.50;;;;;;;15.57;100.00;96660.44;7428562;19;20373;-94
2023/09/06 07:10:17;;;;;;;6.60;6.00;;;;;;;15.28;100.00;96553.28;7430145;19;20401;-94
2023/09/06 07:12:59;;;;;;;7.50;6.80;;;;;;;16.56;100.00;96688.25;7429429;19;20400;-94
2023/09/06 07:15:46;;;;;;;8.93;6.50;;;;;;;15.51;100.00;96568.56;7429340;19;20396;-94
2023/09/06 07:18:48;;;;;;;7.53;6.50;;;;;;;16.31;100.00;96687.81;7428276;19;20381;-94
2023/09/06 07:21:54;;;;;;;8.93;6.13;;;;;;;15.61;100.00;96568.00;7430785;19;20393;-94
2023/09/06 07:24:48;;;;;;;7.47;6.60;;;;;;;15.18;100.00;96481.91;7430532;19;20393;-93
2023/09/06 07:27:34;;;;;;;7.80;7.10;;;;;;;15.76;100.00;96483.72;7429798;19;20397;-93
2023/09/06 07:30:33;;;;;;;7.00;5.77;;;;;;;17.53;100.00;96680.56;7427690;19;20373;-93
2023/09/06 07:33:25;;;;;;;8.80;6.90;;;;;;;17.72;100.00;96687.69;7430180;19;20443;-93
2023/09/06 07:36:18;;;;;;;7.20;6.60;;;;;;;16.61;100.00;96538.44;7434471;19;20408;-93
2023/09/06 07:39:17;;;;;;;6.30;5.80;;;;;;;17.73;100.00;96703.38;7437409;19;20397;-94
2023/09/06 07:42:03;;;;;;;6.47;5.90;;;;;;;17.75;100.00;96619.34;7436076;19;20403;-93
2023/09/06 07:44:44;;;;;;;6.37;5.80;;;;;;;17.12;100.00;96522.75;7436028;19;20393;-94
2023/09/06 07:47:57;;;;;;;6.40;5.80;;;;;;;17.60;100.00;96587.06;7437368;19;20377;-93
2023/09/06 07:50:39;;;;;;;7.60;6.00;;;;;;;18.01;100.00;96702.19;7435845;19;20385;-93
2023/09/06 07:53:33;;;;;;;5.50;5.00;;;;;;;16.89;100.00;96514.03;7433870;19;20416;-94
2023/09/06 07:56:24;;;;;;;7.67;6.97;;;;;;;17.11;100.00;96486.47;7435467;19;20408;-94
2023/09/06 07:59:39;;;;;;;;;;;;;;;;;;;;;
2023/09/06 08:02:49;;;;;;;9.73;6.53;;;;;;;18.08;100.00;96589.09;7433906;19;20424;-93
2023/09/06 08:05:46;;;;;;;5.80;5.30;;;;;;;16.84;100.00;96506.34;7434175;19;20412;-93
2023/09/06 08:08:18;;;;;;;6.27;5.77;;;;;;;17.69;100.00;96595.59;7436203;19;20372;-93
2023/09/06 08:10:54;;;;;;;8.03;5.90;;;;;;;18.52;100.00;96698.91;7432939;19;20371;-93
2023/09/06 08:13:27;;;;;;;7.30;6.10;;;;;;;18.80;100.00;96666.25;7434878;19;20433;-93
2023/09/06 08:16:06;;;;;;;8.27;5.90;;;;;;;18.59;100.00;96602.56;7435337;19;20392;-93
2023/09/06 08:18:51;;;;;;;6.07;5.47;;;;;;;17.89;100.00;96574.78;7434669;19;20381;-92
2023/09/06 08:21:29;;;;;;;5.43;4.93;;;;;;;17.90;100.00;96586.28;7436247;19;20381;-95
2023/09/06 08:24:02;;;;;;;4.77;4.37;;;;;;;18.92;100.00;96655.25;7431568;19;20424;-94
2023/09/06 08:26:40;;;;;;;5.20;4.80;;;;;;;18.69;100.00;96593.06;7434053;19;20402;-93
2023/09/06 08:29:18;;;;;;;4.87;4.30;;;;;;;19.42;100.00;96699.25;7435245;19;20384;-94
2023/09/06 08:31:49;;;;;;;5.13;4.63;;;;;;;18.25;100.00;96581.22;7435026;19;20408;-93
2023/09/06 08:34:20;;;;;;;7.70;5.20;;;;;;;18.80;100.00;96591.25;7436228;19;20388;-93
2023/09/06 08:36:58;;;;;;;10.90;5.33;;;;;;;19.58;100.00;96664.09;7434565;19;20389;-94
2023/09/06 08:39:31;;;;;;;10.97;5.43;;;;;;;19.19;100.00;96594.91;7433739;19;20384;-94
2023/09/06 08:42:20;;;;;;;6.83;6.20;;;;;;;18.17;100.00;96531.47;7434529;19;20420;-94
2023/09/06 08:45:10;;;;;;;5.30;4.90;;;;;;;19.26;100.00;96639.78;7433045;19;20433;-93
2023/09/06 08:47:58;;;;;;;4.73;4.40;;;;;;;18.73;100.00;96593.88;7433520;19;20408;-94
2023/09/06 08:50:38;;;;;;;5.43;5.00;;;;;;;18.67;100.00;96595.34;7434360;19;20384;-92
2023/09/06 08:53:12;;;;;;;4.40;4.10;;;;;;;19.44;100.00;96705.00;7432656;19;20404;-94
2023/09/06 08:55:42;;;;;;;6.10;4.20;;;;;;;19.49;100.00;96699.28;7432658;19;20389;-94
2023/09/06 08:58:10;;;;;;;5.90;4.80;;;;;;;19.14;100.00;96605.25;7434368;19;20386;-93
2023/09/06 09:00:38;;;;;;;6.47;5.13;;;;;;;19.27;100.00;96625.22;7432574;19;20373;-92
2023/09/06 09:03:05;;;;;;;4.70;4.27;;;;;;;19.06;100.00;96614.38;7433500;19;20420;-93
2023/09/06 09:05:33;;;;;;;5.70;4.03;;;;;;;19.36;100.00;96632.91;7431960;19;20403;-94
2023/09/06 09:08:01;;;;;;;5.10;4.70;;;;;;;19.12;100.00;96634.34;7433858;19;20401;-93
2023/09/06 09:10:31;;;;;;;7.67;5.03;;;;;;;19.24;100.00;96599.16;7431348;19;20389;-94
2023/09/06 09:13:00;;;;;;;4.27;3.70;;;;;;;19.42;100.00;96607.28;7433254;19;20420;-94
2023/09/06 09:15:32;;;;;;;4.50;4.10;;;;;;;19.98;100.00;96679.22;7433387;19;20406;-93
2023/09/06 09:18:12;;;;;;;4.70;4.27;;;;;;;19.82;99.10;96664.59;7434589;19;20376;-93
2023/09/06 09:20:40;;;;;;;4.40;3.90;;;;;;;19.83;100.00;96640.06;7433381;19;20385;-93
2023/09/06 09:23:14;;;;;;;4.87;3.90;;;;;;;19.24;100.00;96577.72;7433207;19;20480;-93
2023/09/06 09:25:49;;;;;;;5.97;4.50;;;;;;;19.95;100.00;96647.00;7433529;19;20381;-94
2023/09/06 09:28:17;;;;;;;4.60;4.20;;;;;;;19.67;100.00;96605.50;7431751;19;20400;-94
2023/09/06 09:30:57;;;;;;;6.20;4.90;;;;;;;20.26;100.00;96645.53;7432164;19;20394;-91
2023/09/06 09:33:32;;;;;;;4.83;4.10;;;;;;;20.64;100.00;96724.69;7431828;19;20439;-93
2023/09/06 09:36:13;;;;;;;5.27;4.10;;;;;;;19.91;100.00;96641.63;7429042;19;20436;-93
2023/09/06 09:38:47;;;;;;;3.67;3.37;;;;;;;19.67;100.00;96636.94;7433446;19;20408;-94
2023/09/06 09:41:33;;;;;;;5.40;4.90;;;;;;;19.58;100.00;96599.72;7430738;19;20401;-93
2023/09/06 09:44:35;;;;;;;4.93;4.63;;;;;;;18.93;100.00;96522.03;7431952;19;20403;-94
2023/09/06 09:47:22;;;;;;;9.77;4.70;;;;;;;19.40;100.00;96537.94;7433600;19;20401;-94
2023/09/06 09:50:33;;;;;;;6.23;4.57;;;;;;;20.11;100.00;96628.63;7432712;19;20432;-93
2023/09/06 09:53:31;;;;;;;5.70;4.40;;;;;;;19.87;99.74;96607.84;7431503;19;20506;-93
2023/09/06 09:56:18;;;;;;;4.67;4.20;;;;;;;19.78;100.00;96589.44;7429655;19;20382;-91
2023/09/06 09:58:51;;;;;;;4.57;4.23;;;;;;;20.08;100.00;96640.91;7433602;19;20381;-92
2023/09/06 10:58:29;;;;;;;4.20;3.27;;;;;;;22.32;82.13;96580.47;7431270;19;20423;-93
2023/09/06 11:01:20;;;;;;;3.20;3.00;;;;;;;22.38;81.97;96580.81;7429654;19;20396;-92
2023/09/06 11:03:58;;;;;;;4.43;3.43;;;;;;;22.60;79.50;96605.66;7426728;19;20433;-93
2023/09/06 11:07:09;;;;;;;4.30;3.23;;;;;;;22.49;78.39;96519.50;7430459;19;20395;-92
2023/09/06 11:10:03;;;;;;;4.27;2.90;;;;;;;23.44;78.55;96697.78;7437859;19;20377;-93
2023/09/06 11:15:39;;;;;;;2.93;2.73;;;;;;;23.59;75.00;96680.31;7434809;19;20411;-93
2023/09/06 11:18:11;;;;;;;3.27;3.07;;;;;;;22.77;74.62;96580.47;7438978;19;20415;-92
2023/09/06 11:20:47;;;;;;;3.10;2.80;;;;;;;23.57;72.62;96658.34;7437991;19;20392;-92
2023/09/06 11:23:18;;;;;;;3.13;2.90;;;;;;;24.38;71.51;96699.03;7434584;19;20421;-93
2023/09/06 11:25:45;;;;;;;2.40;2.20;;;;;;;23.81;68.68;96612.53;7437718;19;20412;-93
2023/09/06 11:28:19;;;;;;;3.17;2.70;;;;;;;24.59;70.84;96684.47;7435802;19;20463;-92
2023/09/06 11:30:53;;;;;;;3.20;2.50;;;;;;;24.55;70.81;96701.91;7437088;19;20405;-93
2023/09/06 11:33:30;;;;;;;4.13;2.47;;;;;;;24.18;66.07;96596.22;7435748;19;20440;-91
2023/09/06 11:36:05;;;;;;;4.07;2.87;;;;;;;24.16;66.18;96539.06;7438573;19;20376;-93
2023/09/06 11:38:40;;;;;;;3.00;2.70;;;;;;;24.52;66.50;96584.50;7437181;19;20391;-92
2023/09/06 11:41:08;;;;;;;2.70;2.50;;;;;;;25.18;65.31;96673.09;7435189;19;20373;-92
2023/09/06 11:43:42;;;;;;;2.70;2.50;;;;;;;24.15;63.93;96509.75;7434847;19;20440;-91
2023/09/06 11:46:12;;;;;;;2.50;2.30;;;;;;;24.80;64.44;96512.94;7433593;19;20377;-93
2023/09/06 11:49:04;;;;;;;2.93;2.60;;;;;;;25.81;65.80;96653.38;7437552;19;20380;-92
2023/09/06 11:51:57;;;;;;;3.10;2.80;;;;;;;24.99;65.97;96581.78;7434461;19;20392;-92
2023/09/06 11:54:38;;;;;;;2.40;2.20;;;;;;;25.03;62.66;96609.56;7435660;19;20447;-92
2023/09/06 11:57:08;;;;;;;2.60;2.10;;;;;;;25.44;63.00;96605.72;7438041;19;20433;-92
2023/09/06 11:59:50;;;;;;;5.37;1.70;;;;;;;25.53;56.96;96619.47;7436194;19;20373;-93
2023/09/06 12:02:27;;;;;;;3.30;2.00;;;;;;;25.07;56.46;96512.81;7433788;19;20433;-92
2023/09/06 12:05:09;;;;;;;1.63;1.47;;;;;;;26.24;57.43;96615.25;7437015;19;20381;-92
2023/09/06 12:07:37;;;;;;;2.20;2.00;;;;;;;24.94;57.08;96482.91;7435301;19;20388;-92
2023/09/06 12:10:06;;;;;;;2.50;2.30;;;;;;;25.20;58.95;96529.97;7436729;19;20389;-92
2023/09/06 12:12:41;;;;;;;1.93;1.83;;;;;;;25.63;58.16;96630.06;7434745;19;20461;-93
2023/09/06 12:15:22;;;;;;;2.63;2.00;;;;;;;25.57;59.24;96620.16;7432480;19;20416;-93
2023/09/06 12:17:54;;;;;;;2.57;2.37;;;;;;;25.77;59.44;96642.59;7436055;19;20401;-92
2023/09/06 12:20:23;;;;;;;4.43;2.43;;;;;;;24.76;58.75;96490.59;7432364;19;20377;-91
2023/09/06 12:22:55;;;;;;;2.97;2.30;;;;;;;24.74;58.36;96522.72;7434925;19;20432;-92
2023/09/06 12:25:23;;;;;;;2.10;2.00;;;;;;;25.08;58.54;96557.66;7435370;19;20392;-93
2023/09/06 12:27:54;;;;;;;1.93;1.83;;;;;;;25.56;57.08;96529.25;7436725;19;20485;-93
2023/09/06 12:30:23;;;;;;;2.30;2.10;;;;;;;25.59;57.78;96548.13;7434069;19;20385;-92
2023/09/06 12:32:55;;;;;;;2.27;2.07;;;;;;;25.73;57.42;96557.91;7434891;19;20421;-92
2023/09/06 12:35:38;;;;;;;2.13;2.03;;;;;;;25.46;56.79;96500.44;7435662;19;20426;-92
2023/09/06 12:38:08;;;;;;;2.50;2.30;;;;;;;26.25;58.12;96580.78;7433870;19;20381;-92
2023/09/06 12:40:35;;;;;;;2.27;2.10;;;;;;;26.26;57.01;96568.75;7435606;19;20385;-93
2023/09/06 12:43:12;;;;;;;4.33;2.97;;;;;;;26.67;55.43;96551.88;7432792;19;20427;-91
2023/09/06 12:45:50;;;;;;;2.23;2.03;;;;;;;26.60;55.05;96579.19;7436189;19;20399;-90
2023/09/06 12:48:21;;;;;;;2.00;1.90;;;;;;;25.35;55.26;96498.72;7434418;19;20385;-92
2023/09/06 12:50:52;;;;;;;2.87;2.23;;;;;;;25.63;55.89;96512.81;7432220;19;20396;-92
2023/09/06 12:53:24;;;;;;;2.93;2.63;;;;;;;25.80;55.87;96568.63;7433382;19;20420;-90
2023/09/06 12:56:19;;;;;;;3.33;2.40;;;;;;;25.53;56.25;96449.59;7434028;19;20392;-91
2023/09/06 12:58:55;;;;;;;2.60;2.30;;;;;;;26.09;55.54;96543.59;7436073;19;20402;-90
2023/09/06 13:01:25;;;;;;;3.23;2.20;;;;;;;26.59;54.42;96646.25;7433982;19;20388;-92
2023/09/06 13:03:57;;;;;;;2.17;1.97;;;;;;;26.95;55.20;96638.00;7431227;19;20452;-93
2023/09/06 13:06:29;;;;;;;2.67;2.47;;;;;;;27.26;53.63;96646.56;7434541;19;20384;-92
2023/09/06 13:09:02;;;;;;;3.43;1.80;;;;;;;27.12;53.20;96556.56;7433487;19;20388;-91
2023/09/06 13:11:41;;;;;;;2.30;2.10;;;;;;;27.52;52.04;96578.75;7433726;19;20417;-92
2023/09/06 13:14:14;;;;;;;2.40;2.20;;;;;;;27.47;52.70;96593.59;7432939;19;20423;-92
2023/09/06 13:16:41;;;;;;;1.77;1.67;;;;;;;27.04;51.75;96570.31;7434973;19;20390;-91
2023/09/06 13:19:12;;;;;;;3.70;2.37;;;;;;;27.36;51.37;96639.28;7433324;19;20385;-92
2023/09/06 13:21:41;;;;;;;2.73;2.53;;;;;;;26.49;51.44;96481.81;7431785;19;20392;-93
2023/09/06 13:24:12;;;;;;;4.03;2.27;;;;;;;27.23;52.88;96551.59;7433558;19;20441;-94
2023/09/06 13:26:44;;;;;;;2.50;2.30;;;;;;;27.72;51.54;96644.56;7432988;19;20384;-93
2023/09/06 13:29:11;;;;;;;2.70;2.50;;;;;;;28.09;51.90;96542.47;7433842;19;20377;-93
2023/09/06 13:31:41;;;;;;;2.00;1.90;;;;;;;26.88;50.54;96524.19;7430220;19;20453;-93
2023/09/06 13:34:09;;;;;;;2.63;2.43;;;;;;;26.04;50.21;96471.69;7433980;19;20404;-92
2023/09/06 13:36:36;;;;;;;2.43;2.10;;;;;;;26.71;50.03;96528.91;7432186;19;20420;-91
2023/09/06 13:39:07;;;;;;;2.23;2.13;;;;;;;26.64;51.95;96545.38;7433775;19;20404;-93
2023/09/06 13:41:37;;;;;;;2.30;2.10;;;;;;;26.57;52.60;96548.25;7432386;19;20385;-93
2023/09/06 13:44:04;;;;;;;2.53;2.33;;;;;;;27.53;52.61;96556.56;7432067;19;20467;-94
2023/09/06 13:46:35;;;;;;;2.07;1.93;;;;;;;28.96;49.96;96639.25;7432513;19;20381;-91
2023/09/06 13:49:07;;;;;;;2.60;2.40;;;;;;;28.90;49.14;96540.28;7433936;19;20397;-91
2023/09/06 13:51:35;;;;;;;2.37;2.17;;;;;;;29.03;49.84;96541.75;7431553;19;20380;-91
2023/09/06 13:54:16;;;;;;;2.63;2.43;;;;;;;27.71;49.35;96496.28;7431282;19;20397;-91
2023/09/06 13:56:44;;;;;;;2.43;2.23;;;;;;;27.10;50.54;96460.00;7433055;19;20384;-90
2023/09/06 13:59:11;;;;;;;2.43;2.23;;;;;;;28.44;52.24;96629.63;7431824;19;20440;-92
2023/09/06 14:01:42;;;;;;;3.10;2.27;;;;;;;27.38;52.38;96528.28;7432958;19;20383;-92
2023/09/06 14:04:23;;;;;;;3.13;2.83;;;;;;;27.21;53.11;96507.81;7428817;19;20388;-91
2023/09/06 14:07:00;;;;;;;2.67;2.40;;;;;;;26.43;52.90;96438.16;7433473;19;20397;-90
2023/09/06 14:09:39;;;;;;;3.00;2.60;;;;;;;26.77;53.29;96475.63;7432424;19;20380;-90
2023/09/06 14:12:15;;;;;;;4.33;2.30;;;;;;;26.74;53.29;96486.59;7428895;19;20423;-92
2023/09/06 14:14:52;;;;;;;3.03;2.60;;;;;;;27.30;53.19;96526.97;7432418;19;21668;-91
2023/09/06 14:17:23;;;;;;;2.67;2.47;;;;;;;26.75;53.17;96436.56;7431033;19;20417;-91
2023/09/06 14:19:53;;;;;;;3.10;2.80;;;;;;;28.04;54.47;96551.16;7433031;19;20385;-91
2023/09/06 14:22:21;;;;;;;3.77;3.37;;;;;;;28.41;53.40;96551.59;7430543;19;20434;-92
2023/09/06 14:25:01;;;;;;;3.23;2.50;;;;;;;28.42;52.84;96608.28;7430197;19;20398;-92
2023/09/06 14:28:00;;;;;;;2.97;2.77;;;;;;;28.63;51.50;96536.09;7432147;19;20388;-92
2023/09/06 14:30:34;;;;;;;3.37;3.07;;;;;;;28.54;50.64;96609.47;7430913;19;20388;-92
2023/09/06 14:33:05;;;;;;;3.17;2.97;;;;;;;27.92;51.64;96473.13;7428812;19;20429;-90
2023/09/06 14:35:52;;;;;;;2.67;2.47;;;;;;;28.31;51.32;96514.63;7431965;19;20381;-90
2023/09/06 14:38:38;;;;;;;5.87;3.03;;;;;;;27.69;53.04;96460.63;7431617;19;20393;-91
2023/09/06 14:41:07;;;;;;;3.20;2.97;;;;;;;27.03;54.06;96419.50;7429619;19;20412;-92
2023/09/06 14:43:35;;;;;;;3.20;2.27;;;;;;;28.61;53.43;96497.69;7432998;19;20461;-92
2023/09/06 14:46:06;;;;;;;3.17;2.87;;;;;;;27.48;53.83;96499.28;7437295;19;20403;-92
2023/09/06 14:48:37;;;;;;;3.10;2.90;;;;;;;27.48;53.63;96491.13;7438786;19;20389;-92
2023/09/06 14:51:08;;;;;;;3.00;2.80;;;;;;;27.74;54.40;96527.25;7437583;19;20357;-91
2023/09/06 14:53:35;;;;;;;3.90;3.60;;;;;;;27.61;55.48;96494.59;7436687;19;20439;-92
2023/09/06 14:56:07;;;;;;;2.90;2.70;;;;;;;26.44;55.43;96411.81;7437440;19;20389;-92
2023/09/06 14:58:39;;;;;;;3.73;3.07;;;;;;;27.63;54.56;96590.03;7439434;19;20436;-92
2023/09/06 15:01:11;;;;;;;3.83;2.70;;;;;;;27.64;54.44;96542.69;7437791;19;20396;-91
2023/09/06 15:03:42;;;;;;;4.43;3.70;;;;;;;27.12;55.58;96446.00;7437199;19;20531;-93
2023/09/06 15:06:16;;;;;;;3.90;3.30;;;;;;;27.03;55.51;96487.34;7434799;19;20372;-92
2023/09/06 15:08:56;;;;;;;3.50;3.20;;;;;;;27.55;55.45;96524.28;7436839;19;20376;-92
2023/09/06 15:11:23;;;;;;;3.97;3.67;;;;;;;27.09;56.25;96518.19;7437953;19;20380;-92
2023/09/06 15:13:52;;;;;;;3.90;3.60;;;;;;;27.01;54.80;96487.03;7433688;19;20428;-93
2023/09/06 15:16:23;;;;;;;3.50;3.27;;;;;;;27.27;55.67;96514.25;7439168;19;20413;-93
2023/09/06 15:18:50;;;;;;;3.97;3.17;;;;;;;26.32;55.05;96418.69;7436759;19;20385;-92
2023/09/06 15:21:22;;;;;;;3.57;3.27;;;;;;;26.47;55.65;96473.34;7436095;19;20415;-92
2023/09/06 15:23:51;;;;;;;2.90;2.70;;;;;;;27.08;55.09;96502.34;7431602;19;20460;-93
2023/09/06 15:26:24;;;;;;;3.20;2.80;;;;;;;27.36;55.62;96525.22;7438710;19;20396;-92
2023/09/06 15:28:56;;;;;;;3.27;3.00;;;;;;;27.84;56.05;96585.97;7437380;19;20407;-93
2023/09/06 15:31:30;;;;;;;2.90;2.70;;;;;;;27.46;56.12;96545.88;7435257;19;20394;-92
2023/09/06 15:37:03;;;;;;;4.87;3.97;;;;;;;25.74;58.75;96469.28;7434517;19;20427;-92
2023/09/06 15:39:34;;;;;;;3.17;2.83;;;;;;;25.52;58.42;96395.88;7435506;19;20385;-91
2023/09/06 15:42:05;;;;;;;2.93;2.73;;;;;;;25.92;56.77;96483.19;7437253;19;20416;-92
2023/09/06 15:44:43;;;;;;;3.93;3.60;;;;;;;26.42;56.44;96557.91;7435816;19;20392;-92
2023/09/06 15:47:14;;;;;;;4.50;4.20;;;;;;;26.54;56.14;96537.50;7437467;19;20380;-92
2023/09/06 15:50:06;;;;;;;3.37;3.03;;;;;;;26.27;55.47;96576.44;7436067;19;20377;-91
2023/09/06 15:53:23;;;;;;;3.30;3.00;;;;;;;25.77;55.55;96492.81;7433319;19;20424;-91
2023/09/06 15:56:13;;;;;;;4.13;2.70;;;;;;;25.75;57.88;96576.47;7432533;19;20404;-92
2023/09/06 15:59:30;;;;;;;4.20;3.17;;;;;;;25.82;56.52;96585.22;7434730;19;20413;-91
2023/09/06 16:02:25;;;;;;;3.17;2.87;;;;;;;25.81;55.56;96586.41;7431357;19;20452;-94
2023/09/06 16:05:20;;;;;;;3.10;2.63;;;;;;;24.73;56.73;96532.00;7433844;19;20395;-94
2023/09/06 16:08:19;;;;;;;3.97;3.57;;;;;;;24.20;59.23;96487.69;7435634;19;20460;-92
2023/09/06 16:11:04;;;;;;;3.40;2.77;;;;;;;23.87;60.06;96462.34;7435238;19;20397;-93
2023/09/06 16:13:52;;;;;;;5.83;3.40;;;;;;;23.70;60.96;96439.84;7431647;19;20436;-92
2023/09/06 16:16:40;;;;;;;3.40;3.07;;;;;;;23.85;59.80;96489.78;7437702;19;20397;-91
2023/09/06 16:19:38;;;;;;;3.70;3.40;;;;;;;24.30;59.68;96567.84;7435778;19;20400;-92
2023/09/06 16:22:22;;;;;;;4.03;3.10;;;;;;;23.15;59.88;96394.38;7434720;19;20417;-92
2023/09/06 16:24:50;;;;;;;2.97;2.73;;;;;;;23.31;59.85;96424.19;7433903;19;20397;-93
2023/09/06 16:27:18;;;;;;;3.93;3.50;;;;;;;23.25;61.86;96464.38;7434983;19;20393;-92
2023/09/06 16:29:53;;;;;;;4.47;3.43;;;;;;;23.93;61.58;96562.63;7433969;19;20376;-91
2023/09/06 16:32:27;;;;;;;3.30;3.10;;;;;;;22.96;61.31;96466.63;7434485;19;20456;-92
2023/09/06 16:34:54;;;;;;;2.70;2.50;;;;;;;22.12;62.41;96353.97;7433505;19;20412;-92
2023/09/06 16:37:21;;;;;;;3.90;3.60;;;;;;;22.68;62.43;96464.25;7436396;19;20389;-92
2023/09/06 16:39:48;;;;;;;3.60;3.00;;;;;;;23.34;62.82;96562.94;7433929;19;20392;-92
2023/09/06 16:42:16;;;;;;;7.20;4.10;;;;;;;23.17;63.48;96516.13;7433091;19;20444;-92
2023/09/06 16:44:43;;;;;;;4.10;3.10;;;;;;;23.24;62.55;96553.81;7430053;19;20401;-91
2023/09/06 16:47:10;;;;;;;3.33;2.70;;;;;;;22.44;64.56;96466.06;7434360;19;20389;-91
2023/09/06 16:49:37;;;;;;;3.33;3.13;;;;;;;22.22;63.53;96406.22;7433983;19;20443;-92
2023/09/06 16:52:08;;;;;;;4.10;3.50;;;;;;;23.05;64.41;96554.41;7433523;19;20416;-92
2023/09/06 16:54:35;;;;;;;3.23;2.97;;;;;;;22.57;64.05;96485.16;7434222;19;20381;-92
2023/09/06 16:57:03;;;;;;;6.03;3.13;;;;;;;22.90;65.14;96554.56;7434578;19;20396;-92
2023/09/06 16:59:31;;;;;;;3.73;3.43;;;;;;;22.04;65.72;96435.97;7434112;19;20408;-92
2023/09/06 17:01:59;;;;;;;4.10;3.33;;;;;;;22.80;65.63;96558.09;7434627;19;20398;-91
2023/09/06 17:04:27;;;;;;;3.50;3.20;;;;;;;21.83;66.13;96428.84;7433488;19;20400;-92
2023/09/06 17:06:55;;;;;;;3.67;3.30;;;;;;;21.95;66.01;96434.91;7433129;19;20393;-92
2023/09/06 17:09:23;;;;;;;3.13;2.93;;;;;;;21.74;67.15;96425.81;7430361;19;20392;-92
2023/09/06 17:11:51;;;;;;;6.63;3.43;;;;;;;21.25;67.12;96351.63;7432703;19;20409;-92
2023/09/06 17:14:19;;;;;;;3.20;3.00;;;;;;;22.24;68.61;96516.25;7433917;19;20389;-92
2023/09/06 17:16:47;;;;;;;3.90;3.60;;;;;;;21.00;68.53;96351.00;7430579;19;20392;-92
2023/09/06 17:19:15;;;;;;;4.00;3.10;;;;;;;21.25;69.58;96410.81;7433516;19;20385;-94
2023/09/06 17:21:43;;;;;;;4.93;3.67;;;;;;;21.23;71.18;96427.31;7431830;19;20444;-93
2023/09/06 17:24:14;;;;;;;3.70;3.40;;;;;;;21.94;71.06;96549.94;7433509;19;20385;-92
2023/09/06 17:26:42;;;;;;;4.30;3.37;;;;;;;20.95;72.59;96406.69;7432641;19;20399;-92
2023/09/06 17:29:14;;;;;;;3.87;3.57;;;;;;;20.97;73.84;96414.38;7430167;19;20405;-92
2023/09/06 17:31:41;;;;;;;5.23;3.23;;;;;;;21.67;75.14;96555.09;7431354;19;20440;-93
2023/09/06 17:34:21;;;;;;;3.53;3.23;;;;;;;20.72;76.80;96422.56;7433589;19;20396;-93
2023/09/06 17:37:05;;;;;;;3.80;3.50;;;;;;;20.31;77.80;96368.53;7433304;19;20397;-93
2023/09/06 17:39:47;;;;;;;3.70;3.40;;;;;;;20.72;78.83;96422.56;7431279;19;20401;-93
2023/09/06 17:42:20;;;;;;;5.93;3.60;;;;;;;20.11;79.35;96346.72;7432211;19;20453;-92
2023/09/06 17:45:00;;;;;;;4.53;3.70;;;;;;;20.52;80.64;96424.91;7432609;19;20396;-92
2023/09/06 17:47:38;;;;;;;5.63;3.57;;;;;;;20.26;81.29;96403.84;7432293;19;20389;-92
2023/09/06 17:50:09;;;;;;;3.70;3.40;;;;;;;20.96;83.49;96521.13;7431770;19;20403;-92
2023/09/06 17:52:38;;;;;;;6.20;3.77;;;;;;;20.02;86.92;96416.13;7429549;19;20425;-93
2023/09/06 17:55:06;;;;;;;4.50;3.60;;;;;;;20.00;89.16;96434.56;7432590;19;20384;-92
2023/09/06 17:57:58;;;;;;;3.60;3.30;;;;;;;19.95;94.33;96448.38;7430633;19;20440;-94
2023/09/06 18:01:00;;;;;;;4.27;3.43;;;;;;;19.78;96.87;96428.44;7430607;19;20393;-91
2023/09/06 18:03:43;;;;;;;4.30;3.97;;;;;;;18.92;97.76;96335.59;7431351;19;20456;-92
2023/09/06 18:06:25;;;;;;;4.87;4.00;;;;;;;19.71;97.73;96464.06;7432025;19;20380;-92
2023/09/06 22:09:58;;;;;;;6.00;5.50;;;;;;;13.05;100.00;96269.88;7436644;19;20380;-96